Time;durP1;ratioP1;P1;durP2;ratioP2;P2;SDS_P1;SDS_P2;PMS_P1;PMS_P2;Temp;Humidity;BMP_temperature;BMP_pressure;BME280_temperature;BME280_humidity;BME280_pressure;Samples;Min_cycle;Max_cycle;Signal;HPM_P1;HPM_P2
2022/05/16 00:01:54;;;;;;;7.37;2.90;;;17.40;99.90;;;;;;5059230;28;20532;-79
2022/05/16 00:04:22;;;;;;;6.70;2.97;;;17.40;99.90;;;;;;5057490;28;20468;-79
2022/05/16 00:06:48;;;;;;;5.13;2.47;;;17.40;99.90;;;;;;5055068;28;20487;-80
2022/05/16 00:09:15;;;;;;;5.80;3.20;;;17.40;99.90;;;;;;5054209;28;20852;-80
2022/05/16 00:11:42;;;;;;;5.10;2.50;;;17.30;99.90;;;;;;5055356;28;20966;-80
2022/05/16 00:14:10;;;;;;;5.40;2.90;;;17.30;99.90;;;;;;5055729;28;20451;-80
2022/05/16 00:16:37;;;;;;;5.87;2.97;;;17.30;99.90;;;;;;5088760;22;20847;-78
2022/05/16 00:19:04;;;;;;;4.40;2.63;;;17.30;99.90;;;;;;5065333;28;20449;-78
2022/05/16 00:21:33;;;;;;;8.10;3.80;;;17.30;99.90;;;;;;5056752;28;20445;-79
2022/05/16 00:24:00;;;;;;;5.27;2.57;;;17.30;99.90;;;;;;5072108;28;20447;-78
2022/05/16 00:26:26;;;;;;;5.17;3.17;;;17.10;99.90;;;;;;5058276;28;20470;-79
2022/05/16 00:28:53;;;;;;;7.30;2.93;;;17.10;99.90;;;;;;5043404;28;20458;-78
2022/05/16 00:31:20;;;;;;;5.23;3.23;;;17.10;99.90;;;;;;5048012;28;20456;-79
2022/05/16 00:33:47;;;;;;;5.10;2.80;;;17.10;99.90;;;;;;5054282;28;20453;-78
2022/05/16 00:36:13;;;;;;;6.53;2.83;;;17.00;99.90;;;;;;5044217;28;20488;-78
2022/05/16 00:38:42;;;;;;;7.37;3.60;;;17.00;99.90;;;;;;5052390;28;20485;-79
2022/05/16 00:41:09;;;;;;;4.57;2.90;;;17.00;99.90;;;;;;5050229;28;20454;-79
2022/05/16 00:43:48;;;;;;;6.17;2.53;;;17.00;99.90;;;;;;5053776;28;20453;-78
2022/05/16 00:46:17;;;;;;;6.20;2.63;;;17.00;99.90;;;;;;5044173;28;20488;-78
2022/05/16 00:48:44;;;;;;;6.67;2.50;;;16.90;99.90;;;;;;5045937;28;20475;-80
2022/05/16 00:51:15;;;;;;;7.63;2.90;;;16.90;99.90;;;;;;5050938;28;20454;-79
2022/05/16 00:53:44;;;;;;;4.50;2.57;;;16.80;99.90;;;;;;5050169;28;20552;-78
2022/05/16 00:56:12;;;;;;;5.27;2.80;;;16.80;99.90;;;;;;5046169;28;20493;-79
2022/05/16 00:58:41;;;;;;;8.13;3.40;;;16.80;99.90;;;;;;5050032;28;20485;-79
2022/05/16 01:04:47;;;;;;;4.50;2.70;;;16.70;99.90;;;;;;5033821;28;20451;-79
2022/05/16 01:06:41;;;;;;;3.70;2.33;;;16.70;99.90;;;;;;5034761;28;20460;-78
2022/05/16 01:09:09;;;;;;;5.73;3.63;;;16.60;99.90;;;;;;5050151;28;20460;-78
2022/05/16 01:11:38;;;;;;;4.17;2.83;;;16.60;99.90;;;;;;5050131;28;20460;-79
2022/05/16 01:14:06;;;;;;;8.23;2.97;;;16.50;99.90;;;;;;5048627;28;20453;-78
2022/05/16 01:16:33;;;;;;;5.10;3.03;;;16.50;99.90;;;;;;5044683;28;20477;-79
2022/05/16 01:19:00;;;;;;;7.83;3.60;;;16.50;99.90;;;;;;5050913;28;20447;-79
2022/05/16 01:21:36;;;;;;;6.13;2.97;;;16.40;99.90;;;;;;5033460;28;20458;-79
2022/05/16 01:24:08;;;;;;;7.80;3.97;;;16.30;99.90;;;;;;5048044;28;20470;-79
2022/05/16 01:26:36;;;;;;;7.07;3.50;;;16.30;99.90;;;;;;5046144;28;20475;-79
2022/05/16 01:29:04;;;;;;;5.60;3.00;;;16.20;99.90;;;;;;5036103;28;20468;-79
2022/05/16 01:31:31;;;;;;;5.30;3.10;;;16.20;99.90;;;;;;5033702;28;20501;-78
2022/05/16 01:33:59;;;;;;;5.67;3.30;;;16.20;99.90;;;;;;5042559;28;20981;-79
2022/05/16 01:36:26;;;;;;;6.77;2.80;;;16.10;99.90;;;;;;5013407;28;20505;-79
2022/05/16 01:38:53;;;;;;;9.80;3.50;;;16.10;99.90;;;;;;5029717;28;20576;-79
2022/05/16 01:41:23;;;;;;;4.93;3.10;;;16.10;99.90;;;;;;5044884;28;20458;-79
2022/05/16 01:43:54;;;;;;;7.57;3.27;;;16.10;99.90;;;;;;5047116;28;20447;-80
2022/05/16 01:46:23;;;;;;;6.90;3.40;;;16.00;99.90;;;;;;5052396;28;20480;-79
2022/05/16 01:48:50;;;;;;;6.73;3.57;;;16.00;99.90;;;;;;5040027;28;20957;-80
2022/05/16 01:51:17;;;;;;;7.03;3.37;;;16.00;99.90;;;;;;5033248;28;20448;-80
2022/05/16 01:53:45;;;;;;;5.47;3.33;;;15.90;99.90;;;;;;5045031;28;20451;-79
2022/05/16 01:56:12;;;;;;;8.50;3.30;;;15.90;99.90;;;;;;5056576;28;20480;-80
2022/05/16 01:58:41;;;;;;;8.20;3.03;;;15.90;99.90;;;;;;5049586;28;20479;-80
2022/05/16 02:01:09;;;;;;;5.43;3.30;;;15.90;99.90;;;;;;5056840;28;20448;-79
2022/05/16 02:03:38;;;;;;;7.30;3.20;;;15.90;99.90;;;;;;5052149;28;20456;-80
2022/05/16 02:06:05;;;;;;;6.40;3.23;;;15.90;99.90;;;;;;5056771;28;20467;-79
2022/05/16 02:08:32;;;;;;;6.30;3.00;;;15.80;99.90;;;;;;5049639;28;20455;-79
2022/05/16 02:11:00;;;;;;;7.03;3.27;;;15.80;99.90;;;;;;5045099;28;20454;-79
2022/05/16 02:13:26;;;;;;;7.30;3.27;;;15.80;99.90;;;;;;5050488;28;20455;-80
2022/05/16 02:15:55;;;;;;;7.47;3.50;;;15.80;99.90;;;;;;5056650;28;21003;-79
2022/05/16 02:18:22;;;;;;;4.63;2.80;;;15.80;99.90;;;;;;5051016;28;20871;-80
2022/05/16 02:20:48;;;;;;;6.73;3.00;;;15.80;99.90;;;;;;5056064;28;20460;-80
2022/05/16 02:26:00;;;;;;;6.93;3.20;;;15.70;99.90;;;;;;5057141;28;20469;-80
2022/05/16 02:28:27;;;;;;;7.10;3.50;;;15.70;99.90;;;;;;5048394;28;20967;-80
2022/05/16 02:30:56;;;;;;;5.03;3.10;;;15.70;99.90;;;;;;5043516;28;20543;-79
2022/05/16 02:33:23;;;;;;;5.93;3.13;;;15.60;99.90;;;;;;5051294;28;20454;-79
2022/05/16 02:35:51;;;;;;;5.50;3.43;;;15.60;99.90;;;;;;5056413;28;20525;-78
2022/05/16 02:38:19;;;;;;;6.00;4.17;;;15.50;99.90;;;;;;5050638;28;20483;-78
2022/05/16 02:40:45;;;;;;;8.20;4.40;;;15.50;99.90;;;;;;5042849;28;20456;-78
2022/05/16 02:43:12;;;;;;;6.70;3.33;;;15.50;99.90;;;;;;5052691;28;20459;-78
2022/05/16 02:45:39;;;;;;;5.40;3.20;;;15.40;99.90;;;;;;5055832;28;20481;-78
2022/05/16 02:48:07;;;;;;;7.20;4.53;;;15.40;99.90;;;;;;5045659;28;20973;-78
2022/05/16 02:50:34;;;;;;;4.90;3.13;;;15.40;99.90;;;;;;5055214;28;20458;-78
2022/05/16 02:53:01;;;;;;;7.07;3.80;;;15.40;99.90;;;;;;5043004;28;20454;-79
2022/05/16 02:55:29;;;;;;;5.87;3.60;;;15.40;99.90;;;;;;5051881;28;20473;-77
2022/05/16 02:57:56;;;;;;;10.20;4.03;;;15.40;99.90;;;;;;5057554;28;20491;-80
2022/05/16 03:00:23;;;;;;;7.10;4.60;;;15.40;99.90;;;;;;5048704;28;20953;-80
2022/05/16 03:02:50;;;;;;;7.67;3.17;;;15.30;99.90;;;;;;5038188;28;20449;-79
2022/05/16 03:05:18;;;;;;;5.37;3.60;;;15.30;99.90;;;;;;5035669;28;20453;-79
2022/05/16 03:07:47;;;;;;;5.53;3.80;;;15.30;99.90;;;;;;5037518;28;20825;-78
2022/05/16 03:10:15;;;;;;;9.13;3.77;;;15.30;99.90;;;;;;5055757;28;20948;-79
2022/05/16 03:12:44;;;;;;;6.20;3.77;;;15.20;99.90;;;;;;5049246;28;20834;-78
2022/05/16 03:15:20;;;;;;;7.53;4.27;;;15.20;99.90;;;;;;5053538;28;20466;-79
2022/05/16 03:17:49;;;;;;;7.57;3.97;;;15.20;99.90;;;;;;5042906;28;20488;-80
2022/05/16 03:20:19;;;;;;;2.90;1.67;;;15.20;99.90;;;;;;5064067;28;20459;-78
2022/05/16 03:22:49;;;;;;;5.07;2.40;;;15.70;99.90;;;;;;5058467;28;20463;-78
2022/05/16 03:25:16;;;;;;;9.77;2.93;;;16.00;99.90;;;;;;5054491;28;20543;-78
2022/05/16 03:27:43;;;;;;;9.03;3.80;;;16.20;99.90;;;;;;5048212;28;20456;-81
2022/05/16 03:30:11;;;;;;;9.20;4.10;;;16.10;99.90;;;;;;5042421;28;20830;-80
2022/05/16 03:32:38;;;;;;;6.23;3.50;;;16.00;99.90;;;;;;5043795;28;20461;-81
2022/05/16 03:35:06;;;;;;;7.17;3.67;;;15.90;99.90;;;;;;5056899;28;20459;-79
2022/05/16 03:37:34;;;;;;;10.03;4.27;;;15.80;99.90;;;;;;5060137;28;20463;-80
2022/05/16 03:42:49;;;;;;;7.97;4.00;;;15.70;99.90;;;;;;5058940;28;20466;-80
2022/05/16 03:45:16;;;;;;;8.03;3.70;;;15.60;99.90;;;;;;5068819;28;20551;-76
2022/05/16 03:47:44;;;;;;;7.03;3.57;;;15.50;99.90;;;;;;5063998;28;20441;-77
2022/05/16 03:50:18;;;;;;;6.37;3.40;;;15.40;99.90;;;;;;5066351;28;20452;-76
2022/05/16 03:55:42;;;;;;;7.97;4.20;;;15.30;99.90;;;;;;5059024;28;20507;-78
2022/05/16 03:58:09;;;;;;;6.70;4.73;;;15.20;99.90;;;;;;5058863;28;20482;-82
2022/05/16 04:00:36;;;;;;;8.83;4.70;;;15.20;99.90;;;;;;5056656;28;20459;-82
2022/05/16 04:03:06;;;;;;;12.40;4.23;;;15.20;99.90;;;;;;5048664;28;20450;-79
2022/05/16 04:05:32;;;;;;;7.40;3.77;;;15.10;99.90;;;;;;5057191;28;20483;-82
2022/05/16 04:08:00;;;;;;;7.03;4.07;;;15.10;99.90;;;;;;5057225;28;20451;-83
2022/05/16 04:10:27;;;;;;;8.43;4.47;;;15.10;99.90;;;;;;5057059;28;20462;-83
2022/05/16 04:12:54;;;;;;;9.70;4.40;;;15.20;99.90;;;;;;5057049;28;20499;-82
2022/05/16 04:15:22;;;;;;;6.17;4.37;;;15.10;99.90;;;;;;5056658;28;20448;-82
2022/05/16 04:17:50;;;;;;;9.00;4.47;;;15.10;99.90;;;;;;5055810;28;20929;-82
2022/05/16 04:20:18;;;;;;;9.70;4.87;;;15.20;99.90;;;;;;5056365;28;20452;-83
2022/05/16 04:22:45;;;;;;;7.33;5.03;;;15.20;99.90;;;;;;5050540;28;20466;-83
2022/05/16 04:25:16;;;;;;;9.30;5.30;;;15.20;99.90;;;;;;5052240;28;20460;-82
2022/05/16 04:27:43;;;;;;;8.77;4.67;;;15.20;99.90;;;;;;5040925;28;20447;-82
2022/05/16 04:30:11;;;;;;;7.20;4.30;;;15.30;99.90;;;;;;5044873;28;20848;-80
2022/05/16 04:32:38;;;;;;;7.33;4.10;;;15.30;99.90;;;;;;5018446;28;20526;-81
2022/05/16 04:35:06;;;;;;;7.97;4.43;;;15.40;99.90;;;;;;5035312;28;20461;-82
2022/05/16 04:37:33;;;;;;;10.17;4.70;;;15.40;99.90;;;;;;5034086;28;20459;-81
2022/05/16 04:40:01;;;;;;;11.00;4.90;;;15.50;99.90;;;;;;5035251;28;20505;-81
2022/05/16 04:42:40;;;;;;;8.60;4.57;;;15.40;99.90;;;;;;5035153;28;20450;-80
2022/05/16 04:45:09;;;;;;;8.20;4.07;;;15.40;99.90;;;;;;5042768;28;20444;-82
2022/05/16 04:47:36;;;;;;;8.00;4.70;;;15.50;99.90;;;;;;5050156;28;20465;-83
2022/05/16 04:50:04;;;;;;;7.43;4.43;;;15.50;99.90;;;;;;5048520;28;21009;-81
2022/05/16 04:52:32;;;;;;;6.33;3.90;;;15.50;99.90;;;;;;5050998;28;20847;-81
2022/05/16 04:54:59;;;;;;;9.60;4.60;;;15.60;99.90;;;;;;5052352;28;20468;-81
2022/05/16 04:57:28;;;;;;;9.40;4.07;;;15.60;99.90;;;;;;5039625;28;20571;-83
2022/05/16 04:59:55;;;;;;;11.70;4.90;;;15.70;99.90;;;;;;5047381;28;20546;-81
2022/05/16 05:02:22;;;;;;;7.83;3.53;;;15.70;99.90;;;;;;5046779;28;20471;-82
2022/05/16 05:04:49;;;;;;;11.50;4.30;;;15.80;99.90;;;;;;5047452;28;20458;-82
2022/05/16 05:07:16;;;;;;;7.80;4.57;;;15.90;99.90;;;;;;5047292;28;20526;-82
2022/05/16 05:15:22;;;;;;;9.33;4.00;;;16.00;99.90;;;;;;5049345;28;20494;-79
2022/05/16 05:17:49;;;;;;;6.00;4.37;;;16.00;99.90;;;;;;5030289;28;20571;-82
2022/05/16 05:20:16;;;;;;;7.77;4.23;;;16.10;99.90;;;;;;5033369;28;20906;-82
2022/05/16 05:22:45;;;;;;;7.37;3.60;;;16.20;99.90;;;;;;5036588;28;20451;-80
2022/05/16 05:25:15;;;;;;;6.20;4.23;;;16.30;99.90;;;;;;5037548;28;20455;-80
2022/05/16 05:27:45;;;;;;;7.17;3.90;;;16.40;99.90;;;;;;5032963;28;20549;-79
2022/05/16 05:30:15;;;;;;;11.07;4.60;;;16.50;99.90;;;;;;5045240;28;20451;-83
2022/05/16 05:32:42;;;;;;;10.40;3.93;;;16.70;99.90;;;;;;5054516;28;20452;-82
2022/05/16 05:35:10;;;;;;;8.33;4.20;;;16.80;99.90;;;;;;5053683;28;20456;-79
2022/05/16 05:37:37;;;;;;;10.20;5.60;;;17.00;99.90;;;;;;5038282;28;20881;-80
2022/05/16 05:40:06;;;;;;;10.00;4.20;;;17.20;99.90;;;;;;5037692;28;20495;-80
2022/05/16 05:42:34;;;;;;;11.80;4.00;;;17.50;99.90;;;;;;5025560;28;20457;-79
2022/05/16 05:45:11;;;;;;;8.30;3.73;;;17.80;99.90;;;;;;5048614;28;20458;-80
2022/05/16 05:47:38;;;;;;;8.80;5.07;;;18.10;99.90;;;;;;5053644;28;20454;-79
2022/05/16 05:50:06;;;;;;;9.20;4.43;;;18.40;99.90;;;;;;5038881;28;20456;-81
2022/05/16 05:52:33;;;;;;;7.17;3.70;;;18.60;99.90;;;;;;5046319;28;20609;-81
2022/05/16 05:55:00;;;;;;;10.33;4.00;;;18.80;99.90;;;;;;5035639;28;20538;-86
2022/05/16 05:57:28;;;;;;;9.60;4.30;;;19.00;99.90;;;;;;5042648;28;20472;-81
2022/05/16 05:59:57;;;;;;;8.07;3.87;;;19.20;99.90;;;;;;5051801;28;20514;-80
2022/05/16 06:02:26;;;;;;;8.57;3.73;;;19.40;99.90;;;;;;5050530;28;20469;-80
2022/05/16 06:04:53;;;;;;;7.33;3.27;;;19.60;99.90;;;;;;5031596;28;20610;-79
2022/05/16 06:07:21;;;;;;;6.60;3.87;;;19.70;99.90;;;;;;5034355;28;20472;-81
2022/05/16 06:09:48;;;;;;;7.47;4.20;;;19.90;99.90;;;;;;5034283;28;20445;-82
2022/05/16 06:12:15;;;;;;;9.57;3.63;;;20.00;99.90;;;;;;5037811;28;20453;-80
2022/05/16 06:14:43;;;;;;;6.70;3.40;;;20.10;99.90;;;;;;5033257;28;20449;-82
2022/05/16 06:17:11;;;;;;;6.50;3.67;;;20.10;99.90;;;;;;5034481;28;20499;-82
2022/05/16 06:19:39;;;;;;;11.17;3.57;;;20.30;99.90;;;;;;5030667;28;20489;-83
2022/05/16 06:22:08;;;;;;;7.40;3.97;;;20.50;99.90;;;;;;5038276;28;20449;-83
2022/05/16 06:27:23;;;;;;;9.00;3.40;;;20.70;99.90;;;;;;5034341;28;20449;-80
2022/05/16 06:29:52;;;;;;;7.83;3.40;;;20.90;99.90;;;;;;5034142;28;20455;-80
2022/05/16 06:32:21;;;;;;;9.80;3.73;;;21.00;99.90;;;;;;5034751;28;20459;-82
2022/05/16 06:34:49;;;;;;;7.63;3.50;;;21.10;99.90;;;;;;5031302;28;20445;-83
2022/05/16 06:37:20;;;;;;;8.27;3.53;;;21.20;99.90;;;;;;5033162;28;20540;-80
2022/05/16 06:39:46;;;;;;;11.27;3.60;;;21.30;99.90;;;;;;5034499;28;20865;-82
2022/05/16 06:42:13;;;;;;;9.27;3.90;;;21.40;99.90;;;;;;5039689;28;20453;-84
2022/05/16 06:44:41;;;;;;;9.30;3.90;;;21.50;99.90;;;;;;5037401;28;20852;-80
2022/05/16 06:47:08;;;;;;;8.37;3.23;;;21.60;99.90;;;;;;5032397;28;20542;-81
2022/05/16 06:49:42;;;;;;;6.97;3.37;;;21.70;99.90;;;;;;5032495;28;21139;-79
2022/05/16 06:52:25;;;;;;;6.40;3.60;;;21.80;99.90;;;;;;5036319;28;20448;-77
2022/05/16 06:54:54;;;;;;;6.67;3.50;;;21.80;99.90;;;;;;5034376;28;20468;-79
2022/05/16 06:57:33;;;;;;;8.70;4.40;;;22.00;99.90;;;;;;5029750;28;20484;-78
2022/05/16 07:00:00;;;;;;;7.23;3.57;;;22.10;99.90;;;;;;5025937;28;20545;-81
2022/05/16 07:02:27;;;;;;;8.03;3.73;;;22.20;99.90;;;;;;5028286;28;20456;-82
2022/05/16 07:04:53;;;;;;;8.40;3.60;;;22.40;99.90;;;;;;5031425;28;20461;-83
2022/05/16 07:07:21;;;;;;;11.60;3.70;;;22.50;99.90;;;;;;5036819;28;20472;-81
2022/05/16 07:09:48;;;;;;;9.47;4.40;;;22.70;99.90;;;;;;5034757;28;20449;-80
2022/05/16 07:12:15;;;;;;;10.43;4.03;;;22.80;99.90;;;;;;5031738;28;20976;-83
2022/05/16 07:14:42;;;;;;;6.50;3.03;;;22.90;99.90;;;;;;5029339;28;20456;-83
2022/05/16 07:17:09;;;;;;;10.90;3.87;;;23.10;99.90;;;;;;5032591;28;20487;-82
2022/05/16 07:19:36;;;;;;;9.77;3.53;;;23.20;99.90;;;;;;5034070;28;20484;-84
2022/05/16 07:22:04;;;;;;;9.40;4.10;;;23.30;99.90;;;;;;5037079;28;20456;-82
2022/05/16 07:24:32;;;;;;;8.90;4.10;;;23.40;99.90;;;;;;5036842;28;20449;-79
2022/05/16 07:29:43;;;;;;;9.10;4.20;;;23.60;99.90;;;;;;5030924;28;20444;-79
2022/05/16 07:32:11;;;;;;;10.70;4.03;;;23.70;99.90;;;;;;5036536;28;20484;-81
2022/05/16 07:34:39;;;;;;;8.30;3.43;;;23.50;99.90;;;;;;5036498;28;20453;-83
2022/05/16 07:37:06;;;;;;;8.10;4.60;;;23.60;99.90;;;;;;5036263;28;20472;-82
2022/05/16 07:39:35;;;;;;;8.57;3.70;;;23.50;99.90;;;;;;5036545;28;20492;-83
2022/05/16 07:42:03;;;;;;;13.27;3.77;;;23.50;99.90;;;;;;5038535;28;20488;-82
2022/05/16 07:44:29;;;;;;;8.97;3.43;;;23.60;99.90;;;;;;5032546;28;20965;-80
2022/05/16 07:46:56;;;;;;;4.83;2.53;;;23.60;99.90;;;;;;5050502;28;20472;-79
2022/05/16 07:49:23;;;;;;;6.57;2.90;;;23.50;99.90;;;;;;5031137;28;20989;-80
2022/05/16 07:51:50;;;;;;;6.90;3.20;;;23.30;99.90;;;;;;5030042;28;20448;-80
2022/05/16 07:54:17;;;;;;;6.33;2.57;;;23.00;99.90;;;;;;5033843;28;20535;-81
2022/05/16 07:56:45;;;;;;;4.60;2.93;;;23.10;99.90;;;;;;5032973;28;20483;-81
2022/05/16 07:59:12;;;;;;;5.30;2.73;;;23.20;99.90;;;;;;5035375;28;20484;-80
2022/05/16 08:01:39;;;;;;;8.03;3.23;;;23.20;99.90;;;;;;5036574;28;20465;-82
2022/05/16 08:04:07;;;;;;;8.30;2.97;;;23.00;99.90;;;;;;5034459;28;20506;-81
2022/05/16 08:11:48;;;;;;;6.53;2.30;;;23.10;99.90;;;;;;5038045;28;20447;-82
2022/05/16 08:14:15;;;;;;;5.93;2.57;;;23.20;99.90;;;;;;5039363;28;20448;-83
2022/05/16 08:16:41;;;;;;;5.77;2.50;;;23.40;99.90;;;;;;5039749;28;20460;-82
2022/05/16 08:19:09;;;;;;;7.30;3.10;;;23.50;99.90;;;;;;5035652;28;20494;-82
2022/05/16 08:21:36;;;;;;;5.13;2.43;;;23.70;99.90;;;;;;5038266;28;20972;-82
2022/05/16 08:24:07;;;;;;;6.27;2.30;;;23.90;99.90;;;;;;5036481;28;20507;-82
2022/05/16 08:26:35;;;;;;;6.37;2.60;;;23.90;99.90;;;;;;5029792;28;20445;-81
2022/05/16 08:29:03;;;;;;;8.00;2.50;;;23.80;99.90;;;;;;5036365;28;20481;-81
2022/05/16 08:31:32;;;;;;;6.93;2.80;;;23.90;99.90;;;;;;5037948;28;20455;-82
2022/05/16 08:33:59;;;;;;;6.70;2.80;;;24.40;99.90;;;;;;5037198;28;20543;-81
2022/05/16 08:41:57;;;;;;;6.03;2.80;;;25.50;99.90;;;;;;5030789;28;20835;-80
2022/05/16 08:44:33;;;;;;;4.03;2.17;;;25.70;99.90;;;;;;5033304;28;20468;-82
2022/05/16 08:47:15;;;;;;;5.60;2.70;;;25.70;99.90;;;;;;5036291;28;20480;-83
2022/05/16 08:49:46;;;;;;;5.60;2.20;;;25.50;99.90;;;;;;5034135;28;20444;-82
2022/05/16 08:52:22;;;;;;;4.90;2.60;;;25.40;99.90;;;;;;5037994;28;20447;-83
2022/05/16 08:54:54;;;;;;;4.63;2.23;;;25.10;99.90;;;;;;5037200;28;20463;-83
2022/05/16 08:57:28;;;;;;;6.80;2.40;;;24.90;99.90;;;;;;5036663;28;20572;-82
2022/05/16 09:00:02;;;;;;;7.47;2.40;;;24.70;99.90;;;;;;5030571;28;20487;-81
2022/05/16 09:02:31;;;;;;;5.10;2.60;;;24.60;99.90;;;;;;5031406;28;21161;-82
2022/05/16 09:05:07;;;;;;;7.03;2.80;;;24.30;99.90;;;;;;5035307;28;20850;-83
2022/05/16 09:07:42;;;;;;;5.33;2.10;;;23.90;99.90;;;;;;5030745;28;20491;-82
2022/05/16 09:10:12;;;;;;;4.67;2.57;;;23.80;99.90;;;;;;5028003;28;20450;-82
2022/05/16 09:12:47;;;;;;;6.57;2.70;;;23.80;99.90;;;;;;5034221;28;20483;-82
2022/05/16 09:15:24;;;;;;;7.93;3.93;;;23.60;99.90;;;;;;5032294;28;20524;-83
2022/05/16 09:18:11;;;;;;;7.93;3.23;;;23.60;99.90;;;;;;5029975;28;20476;-82
2022/05/16 09:20:50;;;;;;;5.17;2.50;;;23.40;99.90;;;;;;5030413;28;20492;-82
2022/05/16 09:23:30;;;;;;;7.97;2.70;;;23.30;99.90;;;;;;5034256;28;21021;-81
2022/05/16 09:26:05;;;;;;;7.13;2.73;;;23.10;99.90;;;;;;5036779;28;20977;-82
2022/05/16 09:28:35;;;;;;;9.17;4.03;;;23.10;99.90;;;;;;5026957;28;20507;-80
2022/05/16 09:31:12;;;;;;;4.83;2.70;;;23.00;99.90;;;;;;5036131;28;20448;-82
2022/05/16 09:33:44;;;;;;;5.60;2.57;;;23.10;99.90;;;;;;5036386;28;20448;-81
2022/05/16 09:36:14;;;;;;;10.53;3.10;;;23.00;99.90;;;;;;5034561;28;20511;-82
2022/05/16 09:38:44;;;;;;;4.83;2.87;;;22.90;99.90;;;;;;5023153;28;20495;-81
2022/05/16 09:41:17;;;;;;;5.30;2.13;;;22.90;99.90;;;;;;5034389;28;20684;-81
2022/05/16 09:43:53;;;;;;;4.70;2.20;;;22.90;99.90;;;;;;5031098;28;20807;-81
2022/05/16 09:46:31;;;;;;;4.13;1.77;;;23.00;99.90;;;;;;5033108;28;20452;-78
2022/05/16 09:49:11;;;;;;;5.60;2.40;;;23.00;99.90;;;;;;5030903;28;20472;-79
2022/05/16 09:51:43;;;;;;;5.03;2.13;;;23.10;99.90;;;;;;5034882;28;20449;-80
2022/05/16 09:54:14;;;;;;;7.70;2.60;;;23.20;99.90;;;;;;5033985;28;20453;-80
2022/05/16 09:56:55;;;;;;;5.73;2.70;;;23.50;99.90;;;;;;5034288;28;20452;-79
2022/05/16 09:59:38;;;;;;;7.43;3.40;;;24.10;99.90;;;;;;5037112;28;20457;-81
2022/05/16 10:02:16;;;;;;;7.00;2.47;;;24.60;99.90;;;;;;5035196;28;20820;-80
2022/05/16 10:04:45;;;;;;;3.90;2.50;;;26.10;99.90;;;;;;5035470;28;20440;-80
2022/05/16 10:07:12;;;;;;;6.00;2.40;;;27.60;99.90;;;;;;5031881;28;20480;-81
2022/05/16 10:09:42;;;;;;;3.70;2.20;;;28.10;99.90;;;;;;5030961;28;20532;-79
2022/05/16 10:12:11;;;;;;;8.23;2.30;;;30.40;99.90;;;;;;5032332;28;20453;-80
2022/05/16 10:14:39;;;;;;;5.00;2.10;;;33.60;99.90;;;;;;5035658;28;20487;-81
2022/05/16 10:17:08;;;;;;;5.40;2.33;;;35.70;99.90;;;;;;5036373;28;20472;-80
2022/05/16 10:19:40;;;;;;;6.67;2.40;;;36.30;99.90;;;;;;5037167;28;20456;-80
2022/05/16 10:22:11;;;;;;;4.37;2.60;;;35.60;96.40;;;;;;5037203;28;21011;-80
2022/05/16 10:24:43;;;;;;;3.93;1.90;;;34.60;92.90;;;;;;5036580;28;20467;-80
2022/05/16 10:27:12;;;;;;;4.10;1.90;;;33.60;92.30;;;;;;5037374;28;20464;-80
2022/05/16 10:29:43;;;;;;;7.43;2.50;;;33.30;93.50;;;;;;5037076;28;20549;-80
2022/05/16 10:35:10;;;;;;;3.70;1.90;;;34.30;93.90;;;;;;5036969;28;20432;-81
2022/05/16 10:37:41;;;;;;;4.23;2.10;;;36.30;92.60;;;;;;5025517;28;20562;-81
2022/05/16 10:40:12;;;;;;;3.13;1.67;;;38.20;90.80;;;;;;5035441;28;20495;-82
2022/05/16 10:42:45;;;;;;;4.17;2.00;;;37.40;81.60;;;;;;5039713;28;20961;-83
2022/05/16 10:45:17;;;;;;;4.40;2.13;;;36.20;78.60;;;;;;5024642;28;20969;-81
2022/05/16 10:47:51;;;;;;;3.40;2.30;;;35.10;82.00;;;;;;5036340;28;20477;-80
2022/05/16 10:50:24;;;;;;;4.20;2.00;;;34.10;79.50;;;;;;5035900;28;20448;-81
2022/05/16 10:52:58;;;;;;;6.77;2.30;;;33.20;80.70;;;;;;5037102;28;20451;-81
2022/05/16 10:55:26;;;;;;;3.77;1.70;;;32.40;82.10;;;;;;5036346;28;20945;-82
2022/05/16 10:58:17;;;;;;;3.40;1.77;;;32.60;86.50;;;;;;5036230;28;20507;-81
2022/05/16 11:00:48;;;;;;;4.73;2.17;;;33.10;86.70;;;;;;5037099;28;20545;-81
2022/05/16 11:03:44;;;;;;;3.57;1.70;;;34.60;88.40;;;;;;5036128;28;20964;-81
2022/05/16 11:06:30;;;;;;;5.40;2.40;;;35.90;86.50;;;;;;5038681;28;20957;-80
2022/05/16 11:09:03;;;;;;;4.33;2.53;;;37.30;83.90;;;;;;5039012;28;21024;-82
2022/05/16 11:11:40;;;;;;;3.70;2.00;;;38.10;77.60;;;;;;5041039;28;20957;-82
2022/05/16 11:14:13;;;;;;;3.97;1.97;;;39.20;77.80;;;;;;5040413;28;20909;-83
2022/05/16 11:16:40;;;;;;;3.70;2.30;;;39.70;76.40;;;;;;5040486;28;20449;-79
2022/05/16 11:19:22;;;;;;;2.80;1.80;;;39.10;74.30;;;;;;5037080;28;20463;-82
2022/05/16 11:21:56;;;;;;;4.70;2.43;;;38.90;71.40;;;;;;5037594;28;20495;-81
2022/05/16 11:24:32;;;;;;;4.33;2.20;;;37.20;99.90;;;;;;5038802;28;20536;-82
2022/05/16 11:27:10;;;;;;;4.70;2.20;;;36.10;99.90;;;;;;5037226;28;20472;-82
2022/05/16 11:29:47;;;;;;;5.50;2.23;;;35.10;99.90;;;;;;5038850;28;20604;-81
2022/05/16 11:32:29;;;;;;;4.70;2.13;;;34.00;99.90;;;;;;5038528;28;20440;-81
2022/05/16 11:35:05;;;;;;;3.43;2.07;;;33.70;99.90;;;;;;5037653;28;20483;-81
2022/05/16 11:37:55;;;;;;;4.43;2.40;;;33.50;99.90;;;;;;5041390;28;20511;-79
2022/05/16 11:40:27;;;;;;;7.63;2.60;;;32.90;99.90;;;;;;5018480;28;20469;-80
2022/05/16 11:43:04;;;;;;;4.83;2.30;;;32.60;99.90;;;;;;5020812;28;20480;-79
2022/05/16 11:45:43;;;;;;;6.10;2.07;;;33.10;99.90;;;;;;5037150;28;20439;-80
2022/05/16 11:48:24;;;;;;;6.27;2.23;;;34.00;99.90;;;;;;5038789;28;20480;-80
2022/05/16 11:50:58;;;;;;;5.37;2.40;;;35.60;99.90;;;;;;5038222;28;20456;-80
2022/05/16 11:53:47;;;;;;;4.43;1.90;;;36.90;99.90;;;;;;5038482;28;20449;-79
2022/05/16 12:02:16;;;;;;;3.43;1.77;;;37.80;99.90;;;;;;5036197;28;20424;-79
2022/05/16 12:04:48;;;;;;;4.53;2.37;;;39.50;99.90;;;;;;5034236;28;20443;-78
2022/05/16 12:07:23;;;;;;;4.53;2.30;;;40.00;99.90;;;;;;5034145;28;20487;-79
2022/05/16 12:09:58;;;;;;;4.30;2.23;;;40.70;99.90;;;;;;5034469;28;20447;-80
2022/05/16 12:12:37;;;;;;;5.03;2.10;;;41.40;99.90;;;;;;5033377;28;20451;-79
2022/05/16 12:15:32;;;;;;;4.27;2.33;;;43.10;99.90;;;;;;5034561;28;20952;-79
2022/05/16 12:18:01;;;;;;;4.00;2.03;;;44.60;99.90;;;;;;5031868;28;20473;-80
2022/05/16 12:20:51;;;;;;;2.80;1.70;;;45.60;99.90;;;;;;5026688;28;20600;-81
2022/05/16 12:23:54;;;;;;;6.13;2.50;;;46.70;99.90;;;;;;5032486;28;20468;-81
2022/05/16 12:26:47;;;;;;;4.10;2.00;;;47.60;99.90;;;;;;5036488;28;20816;-82
2022/05/16 12:29:16;;;;;;;4.60;2.47;;;47.20;99.90;;;;;;5002173;28;20536;-80
2022/05/16 12:31:53;;;;;;;3.50;2.20;;;45.70;99.90;;;;;;5036811;28;20651;-79
2022/05/16 12:34:42;;;;;;;4.50;1.80;;;43.80;99.90;;;;;;5035302;28;20443;-79
2022/05/16 12:37:14;;;;;;;4.57;2.30;;;41.90;99.90;;;;;;5030846;28;20472;-80
2022/05/16 12:39:51;;;;;;;5.23;1.90;;;40.30;99.90;;;;;;5030135;28;20441;-79
2022/05/16 12:42:56;;;;;;;4.77;1.80;;;38.70;99.90;;;;;;5034176;28;20488;-79
2022/05/16 12:45:47;;;;;;;5.27;2.77;;;37.00;99.90;;;;;;5032503;28;20456;-79
2022/05/16 12:48:39;;;;;;;3.43;2.20;;;35.40;99.90;;;;;;5028790;28;20480;-79
2022/05/16 12:51:27;;;;;;;3.77;2.03;;;34.20;99.90;;;;;;5033300;28;20459;-80
2022/05/16 12:54:22;;;;;;;4.47;2.40;;;33.30;99.90;;;;;;5033890;28;20455;-78
2022/05/16 12:56:52;;;;;;;3.83;2.43;;;32.40;99.90;;;;;;5032630;28;20452;-79
2022/05/16 12:59:36;;;;;;;4.97;2.50;;;31.70;99.90;;;;;;5032278;28;20875;-79
2022/05/16 13:02:10;;;;;;;3.90;2.70;;;31.30;99.90;;;;;;5023679;28;20477;-79
2022/05/16 13:04:49;;;;;;;4.20;2.27;;;30.80;99.90;;;;;;5032890;28;20437;-80
2022/05/16 13:07:22;;;;;;;5.30;2.47;;;29.90;99.90;;;;;;5036520;28;20544;-79
2022/05/16 13:10:01;;;;;;;9.07;2.97;;;29.70;99.90;;;;;;5031328;28;20528;-80
2022/05/16 13:12:39;;;;;;;5.93;2.50;;;29.40;99.90;;;;;;5031697;28;20512;-80
2022/05/16 13:15:12;;;;;;;5.70;3.30;;;29.30;99.90;;;;;;5033734;28;20449;-79
2022/05/16 13:17:41;;;;;;;7.80;2.93;;;29.60;99.90;;;;;;5033735;28;20471;-80
2022/05/16 13:20:12;;;;;;;6.73;3.00;;;29.60;99.90;;;;;;5033489;28;20484;-80
2022/05/16 13:22:42;;;;;;;6.07;3.20;;;29.00;99.90;;;;;;5034315;28;20528;-80
2022/05/16 13:25:10;;;;;;;6.87;3.43;;;28.70;99.90;;;;;;5032751;28;20444;-81
2022/05/16 13:30:24;;;;;;;6.17;4.40;;;27.50;99.90;;;;;;5026937;28;20421;-79
2022/05/16 13:32:51;;;;;;;6.37;2.80;;;27.10;99.90;;;;;;5026659;28;20909;-77
2022/05/16 13:35:28;;;;;;;9.37;3.33;;;26.70;99.90;;;;;;5029888;28;20465;-78
2022/05/16 13:37:56;;;;;;;5.97;3.20;;;26.30;99.90;;;;;;5032304;28;20526;-80
2022/05/16 13:40:26;;;;;;;6.40;2.70;;;26.10;99.90;;;;;;5035332;28;20452;-78
2022/05/16 13:42:54;;;;;;;6.27;3.50;;;25.90;99.90;;;;;;5032371;28;20557;-78
2022/05/16 13:45:24;;;;;;;5.97;2.87;;;25.80;99.90;;;;;;5032317;28;20862;-79
2022/05/16 13:47:52;;;;;;;10.33;3.77;;;25.60;99.90;;;;;;5031866;28;20473;-78
2022/05/16 13:50:25;;;;;;;6.80;3.30;;;25.50;99.90;;;;;;5035058;28;20472;-79